Genoa, Colorado
Current Conditions -  °F | °C
As of 4:55 AM on Thursday 29 Jan 2015 (Local Time) from KLIC Reporting Station
Overcast Overcast  
Wind Chill: 25°   Ceiling: 10000
Heat Index: 34°   Visibility: 10mi
Dew Point: 26°   Wind: 12mph
Humidity: 73%   Direction: 320°NW
Pressure: 30.41"   Gusts: NA
Location:  39.28°N, 103.5°W
Report Text: KLIC 291155Z AUTO 32010KT 10SM OVC100 01/M03 A3041 RMK AO2 SLP289 T00111033 10017 21011 53017
Loading
Personal Weather Stations






























Interactive Weather Map New forecast layout! Learn more

10-Day Weather Forecast

Advertisements
Track Severe Weather on mobile